sensor_id;sensor_type;location;lat;lon;timestamp;pressure;altitude;pressure_sealevel;temperature;humidity
74270;BME280;62754;48.252;11.654;2023-04-01T00:00:23;94929.28;;;7.72;70.41
74270;BME280;62754;48.252;11.654;2023-04-01T00:02:51;94922.50;;;7.61;70.77
74270;BME280;62754;48.252;11.654;2023-04-01T00:05:19;94922.00;;;7.68;70.71
74270;BME280;62754;48.252;11.654;2023-04-01T00:07:47;94919.13;;;7.61;71.05
74270;BME280;62754;48.252;11.654;2023-04-01T00:10:15;94911.72;;;7.58;70.69
74270;BME280;62754;48.252;11.654;2023-04-01T00:12:41;94922.38;;;7.63;70.91
74270;BME280;62754;48.252;11.654;2023-04-01T00:15:09;94917.94;;;7.55;71.07
74270;BME280;62754;48.252;11.654;2023-04-01T00:17:38;94915.34;;;7.46;71.82
74270;BME280;62754;48.252;11.654;2023-04-01T00:20:06;94908.63;;;7.54;71.46
74270;BME280;62754;48.252;11.654;2023-04-01T00:22:35;94913.19;;;7.51;71.36
74270;BME280;62754;48.252;11.654;2023-04-01T00:25:00;94904.00;;;7.39;72.02
74270;BME280;62754;48.252;11.654;2023-04-01T00:27:26;94914.53;;;7.36;72.10
74270;BME280;62754;48.252;11.654;2023-04-01T00:29:52;94912.63;;;7.38;72.12
74270;BME280;62754;48.252;11.654;2023-04-01T00:32:18;94904.16;;;7.37;72.28
74270;BME280;62754;48.252;11.654;2023-04-01T00:34:43;94914.25;;;7.29;72.71
74270;BME280;62754;48.252;11.654;2023-04-01T00:37:09;94904.25;;;7.26;72.36
74270;BME280;62754;48.252;11.654;2023-04-01T00:39:35;94907.88;;;7.24;72.20
74270;BME280;62754;48.252;11.654;2023-04-01T00:42:04;94913.28;;;7.30;72.19
74270;BME280;62754;48.252;11.654;2023-04-01T00:44:36;94905.06;;;7.27;72.31
74270;BME280;62754;48.252;11.654;2023-04-01T00:47:02;94895.47;;;7.19;73.02
74270;BME280;62754;48.252;11.654;2023-04-01T00:49:45;94904.13;;;7.18;72.55
74270;BME280;62754;48.252;11.654;2023-04-01T00:52:18;94918.53;;;7.19;72.82
74270;BME280;62754;48.252;11.654;2023-04-01T00:54:47;94906.09;;;7.14;72.83
74270;BME280;62754;48.252;11.654;2023-04-01T00:57:20;94910.03;;;7.18;72.83
74270;BME280;62754;48.252;11.654;2023-04-01T00:59:49;94910.59;;;7.22;72.76
74270;BME280;62754;48.252;11.654;2023-04-01T01:02:19;94908.28;;;7.19;73.00
74270;BME280;62754;48.252;11.654;2023-04-01T01:04:45;94914.47;;;7.16;73.25
74270;BME280;62754;48.252;11.654;2023-04-01T01:15:40;94905.22;;;7.25;72.93
74270;BME280;62754;48.252;11.654;2023-04-01T01:31:53;94893.22;;;7.26;72.82
74270;BME280;62754;48.252;11.654;2023-04-01T01:37:16;94888.75;;;7.28;73.19
74270;BME280;62754;48.252;11.654;2023-04-01T01:39:44;94891.44;;;7.26;73.09
74270;BME280;62754;48.252;11.654;2023-04-01T01:42:16;94895.22;;;7.22;73.39
74270;BME280;62754;48.252;11.654;2023-04-01T01:44:45;94901.00;;;7.24;73.58
74270;BME280;62754;48.252;11.654;2023-04-01T01:47:13;94895.22;;;7.22;73.50
74270;BME280;62754;48.252;11.654;2023-04-01T01:49:40;94898.28;;;7.16;73.70
74270;BME280;62754;48.252;11.654;2023-04-01T01:52:07;94891.81;;;7.12;74.21
74270;BME280;62754;48.252;11.654;2023-04-01T01:54:33;94885.22;;;7.19;73.52
74270;BME280;62754;48.252;11.654;2023-04-01T01:57:10;94895.91;;;7.24;73.30
74270;BME280;62754;48.252;11.654;2023-04-01T01:59:39;94890.34;;;7.19;73.19
74270;BME280;62754;48.252;11.654;2023-04-01T02:02:09;94896.81;;;7.23;72.93
74270;BME280;62754;48.252;11.654;2023-04-01T02:04:40;94910.06;;;7.28;72.33
74270;BME280;62754;48.252;11.654;2023-04-01T02:07:15;94900.91;;;7.26;72.66
74270;BME280;62754;48.252;11.654;2023-04-01T02:09:42;94906.03;;;7.26;73.01
74270;BME280;62754;48.252;11.654;2023-04-01T02:12:09;94909.25;;;7.28;72.53
74270;BME280;62754;48.252;11.654;2023-04-01T02:14:46;94911.25;;;7.34;72.82
74270;BME280;62754;48.252;11.654;2023-04-01T02:17:17;94907.50;;;7.28;72.31
74270;BME280;62754;48.252;11.654;2023-04-01T02:22:24;94902.66;;;7.35;71.76
74270;BME280;62754;48.252;11.654;2023-04-01T02:24:53;94910.06;;;7.38;71.52
74270;BME280;62754;48.252;11.654;2023-04-01T02:27:22;94907.50;;;7.38;71.38
74270;BME280;62754;48.252;11.654;2023-04-01T02:29:51;94912.50;;;7.39;71.63
74270;BME280;62754;48.252;11.654;2023-04-01T02:32:19;94910.47;;;7.33;71.44
74270;BME280;62754;48.252;11.654;2023-04-01T02:34:48;94909.13;;;7.29;71.86
74270;BME280;62754;48.252;11.654;2023-04-01T02:37:17;94898.47;;;7.34;71.54
74270;BME280;62754;48.252;11.654;2023-04-01T02:39:45;94908.31;;;7.29;71.54
74270;BME280;62754;48.252;11.654;2023-04-01T02:42:11;94916.38;;;7.34;71.13
74270;BME280;62754;48.252;11.654;2023-04-01T02:44:39;94909.38;;;7.26;71.53
74270;BME280;62754;48.252;11.654;2023-04-01T02:47:07;94926.91;;;7.31;71.66
74270;BME280;62754;48.252;11.654;2023-04-01T02:49:33;94927.06;;;7.29;71.45
74270;BME280;62754;48.252;11.654;2023-04-01T02:52:02;94919.22;;;7.31;70.95
74270;BME280;62754;48.252;11.654;2023-04-01T02:54:27;94913.72;;;7.35;70.92
74270;BME280;62754;48.252;11.654;2023-04-01T02:56:53;94928.00;;;7.38;71.21
74270;BME280;62754;48.252;11.654;2023-04-01T02:59:19;94912.09;;;7.34;71.16
74270;BME280;62754;48.252;11.654;2023-04-01T03:01:45;94934.22;;;7.35;71.29
74270;BME280;62754;48.252;11.654;2023-04-01T03:04:13;94924.88;;;7.34;71.47
74270;BME280;62754;48.252;11.654;2023-04-01T03:06:38;94928.81;;;7.29;71.32
74270;BME280;62754;48.252;11.654;2023-04-01T03:09:04;94926.09;;;7.30;72.19
74270;BME280;62754;48.252;11.654;2023-04-01T03:11:32;94935.13;;;7.34;71.54
74270;BME280;62754;48.252;11.654;2023-04-01T03:14:03;94932.34;;;7.37;71.04
74270;BME280;62754;48.252;11.654;2023-04-01T03:16:32;94944.34;;;7.46;70.90
74270;BME280;62754;48.252;11.654;2023-04-01T03:18:57;94931.94;;;7.51;70.74
74270;BME280;62754;48.252;11.654;2023-04-01T03:21:24;94933.13;;;7.38;71.12
74270;BME280;62754;48.252;11.654;2023-04-01T03:23:52;94939.34;;;7.35;70.92
74270;BME280;62754;48.252;11.654;2023-04-01T03:26:18;94942.72;;;7.36;71.02
74270;BME280;62754;48.252;11.654;2023-04-01T03:28:44;94932.84;;;7.31;71.59
74270;BME280;62754;48.252;11.654;2023-04-01T03:31:12;94932.69;;;7.23;71.14
74270;BME280;62754;48.252;11.654;2023-04-01T03:33:39;94933.88;;;7.19;71.55
74270;BME280;62754;48.252;11.654;2023-04-01T03:36:08;94943.59;;;7.15;71.47
74270;BME280;62754;48.252;11.654;2023-04-01T03:38:37;94946.69;;;7.09;71.98
74270;BME280;62754;48.252;11.654;2023-04-01T03:41:03;94950.16;;;7.08;71.83
74270;BME280;62754;48.252;11.654;2023-04-01T03:43:33;94947.88;;;7.05;71.62
74270;BME280;62754;48.252;11.654;2023-04-01T03:45:59;94952.00;;;6.97;72.19
74270;BME280;62754;48.252;11.654;2023-04-01T03:48:25;94947.59;;;6.99;72.03
74270;BME280;62754;48.252;11.654;2023-04-01T03:50:53;94962.00;;;7.00;72.11
74270;BME280;62754;48.252;11.654;2023-04-01T03:53:21;94961.19;;;6.99;72.05
74270;BME280;62754;48.252;11.654;2023-04-01T03:55:47;94966.81;;;6.93;71.96
74270;BME280;62754;48.252;11.654;2023-04-01T03:58:15;94957.53;;;6.92;71.90
74270;BME280;62754;48.252;11.654;2023-04-01T04:00:41;94955.13;;;7.00;71.82
74270;BME280;62754;48.252;11.654;2023-04-01T04:03:07;94968.88;;;6.99;72.12
74270;BME280;62754;48.252;11.654;2023-04-01T04:05:35;94972.63;;;6.95;72.13
74270;BME280;62754;48.252;11.654;2023-04-01T04:08:01;94971.94;;;6.93;71.95
74270;BME280;62754;48.252;11.654;2023-04-01T04:10:26;94980.06;;;6.98;71.95
74270;BME280;62754;48.252;11.654;2023-04-01T04:12:55;94969.28;;;7.04;71.93
74270;BME280;62754;48.252;11.654;2023-04-01T04:15:22;94971.31;;;7.01;72.13
74270;BME280;62754;48.252;11.654;2023-04-01T04:17:48;94970.50;;;7.00;72.42
74270;BME280;62754;48.252;11.654;2023-04-01T04:20:14;94967.13;;;7.00;72.13
74270;BME280;62754;48.252;11.654;2023-04-01T04:22:40;94970.13;;;7.05;72.10
74270;BME280;62754;48.252;11.654;2023-04-01T04:25:06;94961.72;;;7.03;72.31
74270;BME280;62754;48.252;11.654;2023-04-01T04:27:34;94971.03;;;7.04;72.16
74270;BME280;62754;48.252;11.654;2023-04-01T04:30:00;94974.31;;;7.06;72.11
74270;BME280;62754;48.252;11.654;2023-04-01T04:32:26;94975.03;;;7.17;71.99
74270;BME280;62754;48.252;11.654;2023-04-01T04:34:52;94973.22;;;7.08;72.68
74270;BME280;62754;48.252;11.654;2023-04-01T04:37:17;94978.63;;;7.15;72.75
74270;BME280;62754;48.252;11.654;2023-04-01T04:39:47;94974.47;;;7.14;72.24
74270;BME280;62754;48.252;11.654;2023-04-01T04:42:13;94977.03;;;7.14;72.70
74270;BME280;62754;48.252;11.654;2023-04-01T04:44:39;94989.03;;;7.13;72.78
74270;BME280;62754;48.252;11.654;2023-04-01T04:47:05;94993.34;;;7.13;73.43
74270;BME280;62754;48.252;11.654;2023-04-01T04:49:33;94991.59;;;7.13;73.21
74270;BME280;62754;48.252;11.654;2023-04-01T04:51:59;94982.69;;;7.17;73.72
74270;BME280;62754;48.252;11.654;2023-04-01T04:54:24;94986.63;;;7.22;74.18
74270;BME280;62754;48.252;11.654;2023-04-01T04:56:53;94994.25;;;7.02;75.12
74270;BME280;62754;48.252;11.654;2023-04-01T04:59:18;94991.78;;;7.01;74.97
74270;BME280;62754;48.252;11.654;2023-04-01T05:01:49;94988.41;;;7.00;74.50
74270;BME280;62754;48.252;11.654;2023-04-01T05:04:15;94989.13;;;7.12;74.00
74270;BME280;62754;48.252;11.654;2023-04-01T05:06:44;94983.59;;;7.07;73.86
74270;BME280;62754;48.252;11.654;2023-04-01T05:09:12;94982.28;;;7.12;73.56
74270;BME280;62754;48.252;11.654;2023-04-01T05:11:38;94981.72;;;7.09;73.57
74270;BME280;62754;48.252;11.654;2023-04-01T05:14:06;94978.59;;;7.05;73.26
74270;BME280;62754;48.252;11.654;2023-04-01T05:16:34;94985.25;;;7.17;72.50
74270;BME280;62754;48.252;11.654;2023-04-01T05:19:02;94980.00;;;7.19;72.96
74270;BME280;62754;48.252;11.654;2023-04-01T05:21:28;94982.16;;;7.24;72.57
74270;BME280;62754;48.252;11.654;2023-04-01T05:23:54;94983.25;;;7.21;72.31
74270;BME280;62754;48.252;11.654;2023-04-01T05:26:21;94978.28;;;7.29;72.10
74270;BME280;62754;48.252;11.654;2023-04-01T05:28:47;94985.06;;;7.40;71.46
74270;BME280;62754;48.252;11.654;2023-04-01T05:31:13;94981.03;;;7.37;71.14
74270;BME280;62754;48.252;11.654;2023-04-01T05:33:41;94982.28;;;7.52;71.00
74270;BME280;62754;48.252;11.654;2023-04-01T05:36:14;94984.84;;;7.62;70.36
74270;BME280;62754;48.252;11.654;2023-04-01T05:38:41;94983.09;;;7.62;70.28
74270;BME280;62754;48.252;11.654;2023-04-01T05:41:09;94980.56;;;7.72;70.59
74270;BME280;62754;48.252;11.654;2023-04-01T05:43:38;94983.53;;;7.87;69.27
74270;BME280;62754;48.252;11.654;2023-04-01T05:46:04;94987.81;;;7.77;69.63
74270;BME280;62754;48.252;11.654;2023-04-01T05:48:33;94979.06;;;7.89;69.27
74270;BME280;62754;48.252;11.654;2023-04-01T05:51:02;94981.78;;;7.87;69.14
74270;BME280;62754;48.252;11.654;2023-04-01T05:53:27;94982.19;;;7.92;68.73
74270;BME280;62754;48.252;11.654;2023-04-01T05:55:53;94987.97;;;7.85;68.52
74270;BME280;62754;48.252;11.654;2023-04-01T05:58:21;94988.53;;;7.79;68.80
74270;BME280;62754;48.252;11.654;2023-04-01T06:00:49;94987.31;;;7.92;68.52
74270;BME280;62754;48.252;11.654;2023-04-01T06:03:17;94991.09;;;7.98;68.19
74270;BME280;62754;48.252;11.654;2023-04-01T06:05:43;94988.81;;;8.04;68.64
74270;BME280;62754;48.252;11.654;2023-04-01T06:08:17;94990.72;;;8.02;67.78
74270;BME280;62754;48.252;11.654;2023-04-01T06:18:38;94990.31;;;8.07;67.61
74270;BME280;62754;48.252;11.654;2023-04-01T06:43:15;94982.47;;;8.56;64.16
74270;BME280;62754;48.252;11.654;2023-04-01T06:51:55;94984.69;;;8.88;63.15
74270;BME280;62754;48.252;11.654;2023-04-01T06:54:25;94992.50;;;9.06;62.89
74270;BME280;62754;48.252;11.654;2023-04-01T06:56:59;94979.06;;;9.12;62.11
74270;BME280;62754;48.252;11.654;2023-04-01T06:59:35;94987.59;;;8.66;62.74
74270;BME280;62754;48.252;11.654;2023-04-01T07:02:48;94992.56;;;8.87;62.85
74270;BME280;62754;48.252;11.654;2023-04-01T07:05:06;94988.59;;;8.92;62.31
74270;BME280;62754;48.252;11.654;2023-04-01T07:07:43;94997.34;;;9.09;61.93
74270;BME280;62754;48.252;11.654;2023-04-01T07:10:21;95001.44;;;9.02;62.02
74270;BME280;62754;48.252;11.654;2023-04-01T07:12:54;94981.16;;;8.99;61.28
74270;BME280;62754;48.252;11.654;2023-04-01T07:15:40;95008.72;;;8.97;61.49
74270;BME280;62754;48.252;11.654;2023-04-01T07:18:14;95007.91;;;8.96;61.73
74270;BME280;62754;48.252;11.654;2023-04-01T07:20:41;94995.34;;;9.03;61.35
74270;BME280;62754;48.252;11.654;2023-04-01T07:23:16;94995.47;;;9.01;61.78
74270;BME280;62754;48.252;11.654;2023-04-01T07:25:48;95000.38;;;8.95;61.37
74270;BME280;62754;48.252;11.654;2023-04-01T07:28:19;95010.22;;;8.99;61.94
74270;BME280;62754;48.252;11.654;2023-04-01T07:36:29;95000.41;;;9.22;60.10
74270;BME280;62754;48.252;11.654;2023-04-01T07:42:13;94999.50;;;9.14;60.85
74270;BME280;62754;48.252;11.654;2023-04-01T07:50:27;95018.78;;;9.54;60.98
74270;BME280;62754;48.252;11.654;2023-04-01T07:55:40;95016.75;;;9.58;59.52
74270;BME280;62754;48.252;11.654;2023-04-01T08:06:14;95003.44;;;9.72;58.52
74270;BME280;62754;48.252;11.654;2023-04-01T08:08:45;95017.13;;;9.90;57.71
74270;BME280;62754;48.252;11.654;2023-04-01T08:25:50;95008.38;;;10.01;57.72
74270;BME280;62754;48.252;11.654;2023-04-01T08:28:23;94997.31;;;9.73;57.62
74270;BME280;62754;48.252;11.654;2023-04-01T08:36:07;94983.47;;;10.55;55.34
74270;BME280;62754;48.252;11.654;2023-04-01T08:41:09;94991.63;;;10.93;54.58
74270;BME280;62754;48.252;11.654;2023-04-01T09:00:53;94997.75;;;10.92;53.48
74270;BME280;62754;48.252;11.654;2023-04-01T09:17:29;94979.44;;;11.71;51.99
74270;BME280;62754;48.252;11.654;2023-04-01T09:22:52;94957.75;;;11.56;51.88
74270;BME280;62754;48.252;11.654;2023-04-01T09:28:22;94976.88;;;11.37;52.74
74270;BME280;62754;48.252;11.654;2023-04-01T09:44:35;94951.06;;;11.71;52.79
74270;BME280;62754;48.252;11.654;2023-04-01T09:53:07;94944.06;;;12.30;50.76
74270;BME280;62754;48.252;11.654;2023-04-01T09:56:21;94951.47;;;12.25;50.19
74270;BME280;62754;48.252;11.654;2023-04-01T10:12:38;94935.31;;;11.99;50.31
74270;BME280;62754;48.252;11.654;2023-04-01T10:23:47;94942.00;;;11.67;51.41
74270;BME280;62754;48.252;11.654;2023-04-01T10:34:44;94937.41;;;11.95;51.25
74270;BME280;62754;48.252;11.654;2023-04-01T10:40:17;94930.00;;;12.08;51.18
74270;BME280;62754;48.252;11.654;2023-04-01T10:51:02;94943.69;;;11.84;52.79
74270;BME280;62754;48.252;11.654;2023-04-01T11:02:31;94935.47;;;11.89;53.53
74270;BME280;62754;48.252;11.654;2023-04-01T11:18:56;94960.50;;;11.55;58.13
74270;BME280;62754;48.252;11.654;2023-04-01T11:32:13;94958.06;;;11.95;56.00
74270;BME280;62754;48.252;11.654;2023-04-01T11:35:24;95011.66;;;11.67;56.39
74270;BME280;62754;48.252;11.654;2023-04-01T11:40:37;94980.66;;;11.17;59.47
74270;BME280;62754;48.252;11.654;2023-04-01T12:07:32;95018.34;;;8.95;72.88
74270;BME280;62754;48.252;11.654;2023-04-01T12:12:59;95017.69;;;8.74;72.25
74270;BME280;62754;48.252;11.654;2023-04-01T12:16:35;95008.25;;;8.74;73.21
74270;BME280;62754;48.252;11.654;2023-04-01T12:18:57;95010.81;;;8.84;74.73
74270;BME280;62754;48.252;11.654;2023-04-01T12:21:37;95001.31;;;8.94;73.88
74270;BME280;62754;48.252;11.654;2023-04-01T12:29:54;95000.44;;;8.56;73.04
74270;BME280;62754;48.252;11.654;2023-04-01T12:32:31;95013.25;;;8.66;72.90
74270;BME280;62754;48.252;11.654;2023-04-01T13:04:56;94999.38;;;8.30;74.47
74270;BME280;62754;48.252;11.654;2023-04-01T13:07:37;95008.84;;;8.30;74.69
74270;BME280;62754;48.252;11.654;2023-04-01T13:16:24;95004.50;;;8.30;76.53
74270;BME280;62754;48.252;11.654;2023-04-01T13:33:37;95021.53;;;8.41;73.64
74270;BME280;62754;48.252;11.654;2023-04-01T13:47:34;95034.06;;;8.82;72.04
74270;BME280;62754;48.252;11.654;2023-04-01T13:50:34;95021.91;;;8.75;72.08
74270;BME280;62754;48.252;11.654;2023-04-01T13:55:55;95028.50;;;8.87;73.78
74270;BME280;62754;48.252;11.654;2023-04-01T14:01:35;95025.66;;;8.90;71.34
74270;BME280;62754;48.252;11.654;2023-04-01T14:04:39;95032.38;;;9.10;71.98
74270;BME280;62754;48.252;11.654;2023-04-01T14:12:49;95040.69;;;9.31;71.19
74270;BME280;62754;48.252;11.654;2023-04-01T14:51:38;95024.66;;;9.74;67.94
74270;BME280;62754;48.252;11.654;2023-04-01T15:01:58;95020.31;;;10.55;66.53
74270;BME280;62754;48.252;11.654;2023-04-01T15:17:22;95038.72;;;9.52;70.68
74270;BME280;62754;48.252;11.654;2023-04-01T15:33:45;95043.47;;;9.47;71.00
74270;BME280;62754;48.252;11.654;2023-04-01T15:39:15;95040.69;;;9.31;71.31
74270;BME280;62754;48.252;11.654;2023-04-01T15:53:19;95053.28;;;9.34;69.48
74270;BME280;62754;48.252;11.654;2023-04-01T15:58:39;95057.88;;;9.58;68.17
74270;BME280;62754;48.252;11.654;2023-04-01T16:22:53;95056.41;;;9.65;64.34
74270;BME280;62754;48.252;11.654;2023-04-01T16:28:22;95054.25;;;9.61;63.44
74270;BME280;62754;48.252;11.654;2023-04-01T16:33:58;95056.03;;;9.50;63.58
74270;BME280;62754;48.252;11.654;2023-04-01T16:45:00;95058.31;;;9.26;63.17
74270;BME280;62754;48.252;11.654;2023-04-01T16:47:34;95053.81;;;9.28;64.23
74270;BME280;62754;48.252;11.654;2023-04-01T16:58:26;95069.75;;;9.32;64.19
74270;BME280;62754;48.252;11.654;2023-04-01T17:01:01;95080.19;;;9.30;63.73
74270;BME280;62754;48.252;11.654;2023-04-01T17:03:33;95073.53;;;9.37;64.09
74270;BME280;62754;48.252;11.654;2023-04-01T17:11:36;95079.13;;;9.23;63.29
74270;BME280;62754;48.252;11.654;2023-04-01T17:32:40;95097.59;;;8.99;62.90
74270;BME280;62754;48.252;11.654;2023-04-01T17:43:21;95090.66;;;9.00;62.83
74270;BME280;62754;48.252;11.654;2023-04-01T17:45:56;95106.47;;;9.05;61.94
74270;BME280;62754;48.252;11.654;2023-04-01T18:00:02;95116.09;;;9.03;61.91
74270;BME280;62754;48.252;11.654;2023-04-01T18:19:02;95136.13;;;8.99;62.61
74270;BME280;62754;48.252;11.654;2023-04-01T18:27:33;95141.22;;;9.09;62.16
74270;BME280;62754;48.252;11.654;2023-04-01T18:30:13;95134.09;;;9.03;62.72
74270;BME280;62754;48.252;11.654;2023-04-01T18:32:54;95143.38;;;9.04;62.05
74270;BME280;62754;48.252;11.654;2023-04-01T18:38:33;95150.56;;;9.10;62.10
74270;BME280;62754;48.252;11.654;2023-04-01T18:41:19;95160.28;;;9.16;62.03
74270;BME280;62754;48.252;11.654;2023-04-01T18:43:53;95119.09;;;8.79;62.54
74270;BME280;62754;48.252;11.654;2023-04-01T18:49:21;95162.47;;;9.11;63.38
74270;BME280;62754;48.252;11.654;2023-04-01T18:51:55;95162.59;;;9.09;63.74
74270;BME280;62754;48.252;11.654;2023-04-01T18:57:47;95170.19;;;9.01;64.03
74270;BME280;62754;48.252;11.654;2023-04-01T19:00:37;95176.94;;;8.83;65.85
74270;BME280;62754;48.252;11.654;2023-04-01T19:05:42;95182.75;;;8.76;66.57
74270;BME280;62754;48.252;11.654;2023-04-01T19:11:17;95184.09;;;8.80;66.39
74270;BME280;62754;48.252;11.654;2023-04-01T19:27:45;95191.63;;;8.62;66.21
74270;BME280;62754;48.252;11.654;2023-04-01T19:40:53;95214.34;;;8.67;66.92
74270;BME280;62754;48.252;11.654;2023-04-01T19:43:38;95219.75;;;8.64;67.54
74270;BME280;62754;48.252;11.654;2023-04-01T19:51:52;95217.19;;;8.64;67.15
74270;BME280;62754;48.252;11.654;2023-04-01T19:57:16;95219.56;;;8.46;67.99
74270;BME280;62754;48.252;11.654;2023-04-01T20:07:53;95225.91;;;8.42;68.60
74270;BME280;62754;48.252;11.654;2023-04-01T20:10:35;95228.19;;;8.35;68.46
74270;BME280;62754;48.252;11.654;2023-04-01T20:15:45;95236.78;;;8.25;68.99
74270;BME280;62754;48.252;11.654;2023-04-01T20:18:15;95243.53;;;8.26;68.64
74270;BME280;62754;48.252;11.654;2023-04-01T20:21:02;95246.34;;;8.23;68.99
74270;BME280;62754;48.252;11.654;2023-04-01T20:23:41;95252.91;;;8.36;68.68
74270;BME280;62754;48.252;11.654;2023-04-01T20:26:21;95248.78;;;8.24;68.94
74270;BME280;62754;48.252;11.654;2023-04-01T20:31:43;95257.50;;;8.33;69.23
74270;BME280;62754;48.252;11.654;2023-04-01T21:01:51;95263.19;;;8.15;69.44
74270;BME280;62754;48.252;11.654;2023-04-01T21:07:20;95266.03;;;8.12;69.60
74270;BME280;62754;48.252;11.654;2023-04-01T21:13:00;95270.53;;;7.99;69.88
74270;BME280;62754;48.252;11.654;2023-04-01T21:18:15;95272.97;;;8.01;69.95
74270;BME280;62754;48.252;11.654;2023-04-01T21:26:46;95272.31;;;7.99;69.92
74270;BME280;62754;48.252;11.654;2023-04-01T21:48:59;95290.69;;;8.04;70.12
74270;BME280;62754;48.252;11.654;2023-04-01T22:13:59;95284.91;;;7.60;71.16
74270;BME280;62754;48.252;11.654;2023-04-01T22:16:36;95314.66;;;7.93;70.62
74270;BME280;62754;48.252;11.654;2023-04-01T22:25:03;95319.47;;;7.87;70.59
74270;BME280;62754;48.252;11.654;2023-04-01T22:27:42;95323.41;;;7.91;70.52
74270;BME280;62754;48.252;11.654;2023-04-01T22:30:17;95327.47;;;7.93;70.39
74270;BME280;62754;48.252;11.654;2023-04-01T22:32:51;95319.53;;;7.96;70.59
74270;BME280;62754;48.252;11.654;2023-04-01T22:38:14;95331.88;;;8.02;70.32
74270;BME280;62754;48.252;11.654;2023-04-01T22:41:15;95292.53;;;7.72;70.71
74270;BME280;62754;48.252;11.654;2023-04-01T22:43:54;95323.97;;;7.74;71.05
74270;BME280;62754;48.252;11.654;2023-04-01T22:46:26;95323.22;;;7.83;70.93
74270;BME280;62754;48.252;11.654;2023-04-01T22:49:01;95330.16;;;7.92;71.12
74270;BME280;62754;48.252;11.654;2023-04-01T22:56:57;95328.56;;;7.91;71.81
74270;BME280;62754;48.252;11.654;2023-04-01T23:02:43;95331.34;;;7.88;71.91
74270;BME280;62754;48.252;11.654;2023-04-01T23:05:17;95329.09;;;7.74;72.46
74270;BME280;62754;48.252;11.654;2023-04-01T23:10:44;95342.38;;;7.79;72.15
74270;BME280;62754;48.252;11.654;2023-04-01T23:13:14;95351.97;;;7.65;72.72
74270;BME280;62754;48.252;11.654;2023-04-01T23:15:44;95338.88;;;7.80;72.26
74270;BME280;62754;48.252;11.654;2023-04-01T23:18:30;95349.09;;;7.59;72.90
74270;BME280;62754;48.252;11.654;2023-04-01T23:29:17;95346.41;;;7.60;72.38
74270;BME280;62754;48.252;11.654;2023-04-01T23:31:46;95349.41;;;7.65;72.18
74270;BME280;62754;48.252;11.654;2023-04-01T23:36:52;95352.78;;;7.66;71.56
74270;BME280;62754;48.252;11.654;2023-04-01T23:39:29;95351.34;;;7.52;71.80
74270;BME280;62754;48.252;11.654;2023-04-01T23:42:00;95347.72;;;7.55;71.81
74270;BME280;62754;48.252;11.654;2023-04-01T23:44:28;95357.41;;;7.51;72.06
74270;BME280;62754;48.252;11.654;2023-04-01T23:47:01;95352.28;;;7.51;71.95
74270;BME280;62754;48.252;11.654;2023-04-01T23:49:37;95351.03;;;7.66;71.48
74270;BME280;62754;48.252;11.654;2023-04-01T23:52:12;95350.06;;;7.47;71.87
74270;BME280;62754;48.252;11.654;2023-04-01T23:54:43;95359.03;;;7.52;71.86
74270;BME280;62754;48.252;11.654;2023-04-01T23:57:15;95365.84;;;7.63;71.72
74270;BME280;62754;48.252;11.654;2023-04-01T23:59:47;95369.97;;;7.54;71.74
